Time;durP1;ratioP1;P1;durP2;ratioP2;P2;SDS_P1;SDS_P2;PMS_P1;PMS_P2;Temp;Humidity;BMP_temperature;BMP_pressure;BME280_temperature;BME280_humidity;BME280_pressure;Samples;Min_cycle;Max_cycle;Signal;HPM_P1;HPM_P2
2021/12/01 00:00:36;;;;;;;45.37;19.50;;;8.80;99.90;;;;;;4698831;30;20083;-82
2021/12/01 00:03:03;;;;;;;39.97;19.10;;;8.80;99.90;;;;;;4684658;30;20049;-82
2021/12/01 00:05:31;;;;;;;43.23;19.80;;;8.80;99.90;;;;;;4699112;30;20468;-82
2021/12/01 00:07:57;;;;;;;40.63;19.17;;;8.90;99.90;;;;;;4684040;30;20057;-82
2021/12/01 00:10:25;;;;;;;42.40;19.33;;;8.90;99.90;;;;;;4668431;30;20112;-82
2021/12/01 00:12:52;;;;;;;39.63;18.33;;;9.00;99.90;;;;;;4683629;30;20112;-81
2021/12/01 00:15:19;;;;;;;40.20;20.77;;;9.00;99.90;;;;;;4699270;30;20053;-82
2021/12/01 00:17:45;;;;;;;40.67;20.17;;;9.00;99.90;;;;;;4694296;30;20054;-82
2021/12/01 00:20:13;;;;;;;38.27;19.67;;;9.00;99.90;;;;;;4682489;30;20045;-82
2021/12/01 00:22:40;;;;;;;39.57;20.63;;;9.10;99.90;;;;;;4682463;30;20102;-81
2021/12/01 00:25:07;;;;;;;40.50;21.07;;;9.10;99.90;;;;;;4698681;30;20136;-81
2021/12/01 00:27:33;;;;;;;37.87;20.83;;;9.10;99.90;;;;;;4681676;30;20065;-81
2021/12/01 00:29:59;;;;;;;38.33;21.23;;;9.10;99.90;;;;;;4683236;30;20491;-81
2021/12/01 00:32:25;;;;;;;40.43;20.60;;;9.10;99.90;;;;;;4699313;30;20060;-82
2021/12/01 00:34:52;;;;;;;35.83;19.87;;;9.10;99.90;;;;;;4683224;30;20052;-81
2021/12/01 00:37:18;;;;;;;36.60;20.50;;;9.20;99.90;;;;;;4678821;30;20061;-81
2021/12/01 00:39:44;;;;;;;41.50;21.63;;;9.20;99.90;;;;;;4669203;30;20041;-81
2021/12/01 00:42:11;;;;;;;37.53;20.83;;;9.30;99.90;;;;;;4692973;30;20042;-85
2021/12/01 00:44:45;;;;;;;35.53;21.20;;;9.20;99.90;;;;;;4684088;30;20092;-81
2021/12/01 00:47:12;;;;;;;39.07;22.23;;;9.30;99.90;;;;;;4654615;30;20057;-82
2021/12/01 00:49:39;;;;;;;36.53;20.77;;;9.30;99.90;;;;;;4668822;30;20711;-81
2021/12/01 00:52:05;;;;;;;39.67;21.47;;;9.40;99.90;;;;;;4671628;30;20116;-81
2021/12/01 00:54:31;;;;;;;34.03;20.33;;;9.30;99.90;;;;;;4664625;30;20088;-82
2021/12/01 00:56:57;;;;;;;35.67;21.03;;;9.30;99.90;;;;;;4664806;30;20072;-83
2021/12/01 00:59:23;;;;;;;33.40;19.50;;;9.30;99.90;;;;;;4682103;30;20064;-81
2021/12/01 01:01:49;;;;;;;36.03;19.87;;;9.30;99.90;;;;;;4681149;30;20516;-82
2021/12/01 01:04:15;;;;;;;36.90;20.87;;;9.40;99.90;;;;;;4678293;30;21752;-81
2021/12/01 01:06:42;;;;;;;36.63;19.33;;;9.40;99.90;;;;;;4690295;30;20044;-83
2021/12/01 01:09:09;;;;;;;34.93;20.47;;;9.40;99.90;;;;;;4681745;30;20398;-81
2021/12/01 01:17:06;;;;;;;31.40;19.50;;;9.40;99.90;;;;;;4672210;30;20068;-81
2021/12/01 01:19:34;;;;;;;33.57;20.10;;;9.40;99.90;;;;;;4667260;30;20056;-84
2021/12/01 01:22:00;;;;;;;33.43;20.20;;;9.40;99.90;;;;;;4683879;30;20503;-81
2021/12/01 01:24:27;;;;;;;31.57;18.03;;;9.40;99.90;;;;;;4662130;30;20061;-81
2021/12/01 01:26:56;;;;;;;31.40;18.50;;;9.50;99.90;;;;;;4699279;30;20077;-83
2021/12/01 01:29:22;;;;;;;29.23;17.93;;;9.50;99.90;;;;;;4695113;30;20075;-82
2021/12/01 01:31:58;;;;;;;35.17;19.23;;;9.40;99.90;;;;;;4698506;30;20162;-82
2021/12/01 01:34:25;;;;;;;32.10;19.67;;;9.50;99.90;;;;;;4691898;30;20088;-82
2021/12/01 01:36:51;;;;;;;34.30;18.00;;;9.50;99.90;;;;;;4669064;30;20104;-80
2021/12/01 01:39:18;;;;;;;32.43;18.33;;;9.40;99.90;;;;;;4679731;30;20132;-81
2021/12/01 01:41:45;;;;;;;27.13;17.67;;;9.50;99.90;;;;;;4694611;30;20776;-81
2021/12/01 01:44:10;;;;;;;30.03;17.40;;;9.40;99.90;;;;;;4682458;30;20524;-82
2021/12/01 01:46:38;;;;;;;24.30;15.27;;;9.40;99.90;;;;;;4680112;30;20073;-80
2021/12/01 01:51:42;;;;;;;26.20;14.63;;;9.40;99.90;;;;;;4695879;30;20461;-84
2021/12/01 01:54:09;;;;;;;22.37;13.73;;;9.40;99.90;;;;;;4667472;30;20136;-80
2021/12/01 01:56:35;;;;;;;24.30;13.87;;;9.40;99.90;;;;;;4696682;30;20522;-82
2021/12/01 01:59:02;;;;;;;28.77;14.53;;;9.40;99.90;;;;;;4678587;30;20040;-81
2021/12/01 02:01:44;;;;;;;25.80;14.77;;;9.40;99.90;;;;;;4683776;30;20049;-81
2021/12/01 02:04:18;;;;;;;25.50;13.90;;;9.40;99.90;;;;;;4681298;30;20454;-83
2021/12/01 02:06:47;;;;;;;27.43;14.10;;;9.50;99.90;;;;;;4697505;30;20053;-82
2021/12/01 02:09:14;;;;;;;23.27;13.13;;;9.40;99.90;;;;;;4681804;30;20132;-82
2021/12/01 02:11:41;;;;;;;27.07;14.90;;;9.40;99.90;;;;;;4667591;30;20076;-81
2021/12/01 02:14:07;;;;;;;24.37;13.37;;;9.40;99.90;;;;;;4667183;30;20044;-81
2021/12/01 02:16:34;;;;;;;25.23;14.30;;;9.50;99.90;;;;;;4682410;30;20539;-82
2021/12/01 02:19:00;;;;;;;19.93;12.00;;;9.40;99.90;;;;;;4669502;30;20049;-81
2021/12/01 02:21:28;;;;;;;23.47;12.30;;;9.50;99.90;;;;;;4684593;30;20052;-81
2021/12/01 02:23:57;;;;;;;20.97;11.97;;;9.50;99.90;;;;;;4681543;30;20045;-81
2021/12/01 02:26:25;;;;;;;19.57;11.50;;;9.50;99.90;;;;;;4683290;30;20053;-81
2021/12/01 02:28:54;;;;;;;17.33;10.23;;;9.50;99.90;;;;;;4679578;30;20490;-82
2021/12/01 02:31:22;;;;;;;18.77;10.30;;;9.50;99.90;;;;;;4694634;30;20049;-80
2021/12/01 02:33:48;;;;;;;17.60;10.07;;;9.50;99.90;;;;;;4693367;30;20405;-81
2021/12/01 02:36:15;;;;;;;17.37;9.70;;;9.50;99.90;;;;;;4666088;30;20173;-83
2021/12/01 02:38:44;;;;;;;16.07;9.07;;;9.50;99.90;;;;;;4696195;30;20574;-81
2021/12/01 02:41:11;;;;;;;17.20;9.47;;;9.60;99.90;;;;;;4683847;30;20044;-81
2021/12/01 02:43:37;;;;;;;17.53;9.37;;;9.60;99.90;;;;;;4686906;30;20430;-82
2021/12/01 02:46:03;;;;;;;14.17;8.00;;;9.60;99.90;;;;;;4700843;30;20049;-81
2021/12/01 02:48:30;;;;;;;11.67;7.63;;;9.50;99.90;;;;;;4700177;30;20056;-81
2021/12/01 02:50:56;;;;;;;11.97;7.30;;;9.60;99.90;;;;;;4671802;30;20049;-85
2021/12/01 02:53:23;;;;;;;10.97;7.10;;;9.60;99.90;;;;;;4671823;30;20125;-82
2021/12/01 02:55:59;;;;;;;10.77;6.90;;;9.60;99.90;;;;;;4697092;30;20372;-80
2021/12/01 02:58:26;;;;;;;11.20;6.30;;;9.70;99.90;;;;;;4701016;30;20149;-81
2021/12/01 03:00:55;;;;;;;10.60;6.17;;;9.80;99.90;;;;;;4700183;30;20483;-82
2021/12/01 03:03:22;;;;;;;10.90;6.17;;;9.70;99.90;;;;;;4700737;30;20058;-80
2021/12/01 03:05:49;;;;;;;10.03;5.60;;;9.70;99.90;;;;;;4686194;30;20132;-82
2021/12/01 03:08:17;;;;;;;7.67;5.17;;;9.70;99.90;;;;;;4700800;30;20076;-81
2021/12/01 03:10:49;;;;;;;8.10;5.30;;;9.70;99.90;;;;;;4698482;30;20060;-81
2021/12/01 03:13:15;;;;;;;;;;;9.70;99.90;;;;;;4700440;30;20493;-81
2021/12/01 03:15:41;;;;;;;7.47;4.87;;;9.70;99.90;;;;;;4677627;30;19933;-81
2021/12/01 03:18:08;;;;;;;6.53;4.40;;;9.80;99.90;;;;;;4699958;30;20061;-82
2021/12/01 03:20:34;;;;;;;6.83;4.30;;;9.80;99.90;;;;;;4700151;30;20053;-80
2021/12/01 03:23:00;;;;;;;5.23;3.87;;;9.80;99.90;;;;;;4699350;30;20515;-82
2021/12/01 03:25:27;;;;;;;6.33;3.87;;;9.80;99.90;;;;;;4699955;30;20054;-81
2021/12/01 03:27:53;;;;;;;4.73;3.67;;;9.80;99.90;;;;;;4686115;30;20061;-81
2021/12/01 03:30:20;;;;;;;6.80;3.97;;;9.80;99.90;;;;;;4668603;30;20053;-83
2021/12/01 03:32:45;;;;;;;4.93;3.20;;;9.80;99.90;;;;;;4699013;30;20054;-82
2021/12/01 03:35:14;;;;;;;4.23;3.07;;;9.80;99.90;;;;;;4698629;30;20399;-80
2021/12/01 03:37:45;;;;;;;4.77;2.40;;;9.80;99.90;;;;;;4667488;30;20089;-83
2021/12/01 03:40:13;;;;;;;3.60;2.50;;;9.80;99.90;;;;;;4700984;30;20403;-83
2021/12/01 03:42:39;;;;;;;3.57;2.10;;;9.80;99.90;;;;;;4685863;30;20053;-83
2021/12/01 03:45:06;;;;;;;4.83;2.80;;;9.80;99.90;;;;;;4700214;30;20088;-81
2021/12/01 03:47:33;;;;;;;6.63;2.67;;;9.80;99.90;;;;;;4699118;30;20140;-83
2021/12/01 03:49:59;;;;;;;5.20;2.80;;;9.90;99.90;;;;;;4697537;30;20046;-82
2021/12/01 03:52:25;;;;;;;6.30;2.60;;;9.80;99.90;;;;;;4700646;30;20064;-82
2021/12/01 03:54:52;;;;;;;12.50;2.97;;;9.80;99.90;;;;;;4699025;30;20406;-82
2021/12/01 03:57:19;;;;;;;5.23;2.73;;;9.80;99.90;;;;;;4700489;30;20432;-81
2021/12/01 03:59:46;;;;;;;4.03;2.90;;;9.70;99.90;;;;;;4699560;30;20518;-83
2021/12/01 04:02:11;;;;;;;6.33;2.97;;;9.70;99.90;;;;;;4687243;30;20045;-83
2021/12/01 04:04:38;;;;;;;7.40;3.17;;;9.70;99.90;;;;;;4681104;30;20045;-83
2021/12/01 04:07:04;;;;;;;4.67;3.27;;;9.70;99.90;;;;;;4666089;30;20455;-83
2021/12/01 04:09:32;;;;;;;7.40;3.07;;;9.70;99.90;;;;;;4669969;30;20110;-84
2021/12/01 04:11:58;;;;;;;6.80;3.47;;;9.70;99.90;;;;;;4685649;30;20077;-81
2021/12/01 04:14:23;;;;;;;8.43;3.77;;;9.70;99.90;;;;;;4682547;30;20088;-83
2021/12/01 04:16:50;;;;;;;7.37;3.43;;;9.70;99.90;;;;;;4657316;30;20411;-81
2021/12/01 04:19:16;;;;;;;7.37;3.50;;;9.70;99.90;;;;;;4667870;30;20061;-82
2021/12/01 04:21:42;;;;;;;5.47;3.10;;;9.70;99.90;;;;;;4684414;30;20042;-81
2021/12/01 04:24:08;;;;;;;6.03;3.20;;;9.70;99.90;;;;;;4668805;30;20399;-84
2021/12/01 04:26:35;;;;;;;6.40;3.43;;;9.70;99.90;;;;;;4683424;30;20056;-82
2021/12/01 04:29:03;;;;;;;3.17;2.57;;;9.70;99.90;;;;;;4697882;30;20506;-82
2021/12/01 04:31:32;;;;;;;4.63;3.10;;;9.70;99.90;;;;;;4670797;30;20089;-83
2021/12/01 04:33:58;;;;;;;4.93;2.70;;;9.60;99.90;;;;;;4684595;30;20045;-85
2021/12/01 04:36:37;;;;;;;4.10;3.03;;;9.60;99.90;;;;;;4684835;30;20053;-82
2021/12/01 04:39:06;;;;;;;4.63;2.83;;;9.60;99.90;;;;;;4683288;30;20048;-84
2021/12/01 04:41:38;;;;;;;5.27;3.10;;;9.60;99.90;;;;;;4698336;30;20049;-84
2021/12/01 04:44:09;;;;;;;6.17;3.27;;;9.60;99.90;;;;;;4683177;30;20041;-83
2021/12/01 04:46:40;;;;;;;4.25;3.05;;;9.60;99.90;;;;;;4685648;30;20498;-84
2021/12/01 04:49:07;;;;;;;4.80;2.90;;;9.60;99.90;;;;;;4684184;30;20051;-84
2021/12/01 04:51:33;;;;;;;3.77;2.43;;;9.60;99.90;;;;;;4682912;30;20057;-81
2021/12/01 04:53:59;;;;;;;3.87;2.50;;;9.60;99.90;;;;;;4682558;30;20045;-82
2021/12/01 04:56:25;;;;;;;6.37;3.00;;;9.60;99.90;;;;;;4682961;30;20131;-83
2021/12/01 04:58:51;;;;;;;5.47;3.30;;;9.60;99.90;;;;;;4694556;30;20041;-83
2021/12/01 05:01:17;;;;;;;4.77;2.60;;;9.60;99.90;;;;;;4683700;30;20128;-83
2021/12/01 05:03:43;;;;;;;3.93;2.90;;;9.60;99.90;;;;;;4666864;30;20049;-81
2021/12/01 05:06:12;;;;;;;4.33;3.43;;;9.60;99.90;;;;;;4685003;30;20077;-82
2021/12/01 05:08:39;;;;;;;4.07;3.20;;;9.60;99.90;;;;;;4683448;30;20053;-83
2021/12/01 05:11:04;;;;;;;4.40;3.57;;;9.50;99.90;;;;;;4672713;30;20088;-84
2021/12/01 05:13:30;;;;;;;5.67;3.20;;;9.50;99.90;;;;;;4682740;30;20087;-84
2021/12/01 05:15:56;;;;;;;3.77;2.90;;;9.50;99.90;;;;;;4682489;30;20045;-85
2021/12/01 05:18:22;;;;;;;3.53;2.83;;;9.40;99.90;;;;;;4695062;30;20058;-86
2021/12/01 05:20:48;;;;;;;4.70;2.97;;;9.40;99.90;;;;;;4691435;30;20049;-83
2021/12/01 05:23:15;;;;;;;4.90;3.20;;;9.40;99.90;;;;;;4665380;30;20072;-81
2021/12/01 05:25:45;;;;;;;3.93;3.00;;;9.40;99.90;;;;;;4683504;30;20051;-83
2021/12/01 05:28:11;;;;;;;3.13;2.50;;;9.40;99.90;;;;;;4681828;30;20061;-83
2021/12/01 05:30:37;;;;;;;4.20;2.87;;;9.40;99.90;;;;;;4692890;30;20393;-83
2021/12/01 05:33:08;;;;;;;4.30;2.83;;;9.30;99.90;;;;;;4681440;30;20045;-83
2021/12/01 05:35:36;;;;;;;4.47;2.85;;;9.30;99.90;;;;;;4699174;30;20454;-85
2021/12/01 05:38:05;;;;;;;3.90;3.03;;;9.30;99.90;;;;;;4697768;30;20047;-87
2021/12/01 05:40:32;;;;;;;3.73;2.60;;;9.30;99.90;;;;;;4700234;30;20057;-86
2021/12/01 05:42:58;;;;;;;3.57;2.80;;;9.30;99.90;;;;;;4694677;30;20186;-81
2021/12/01 05:45:24;;;;;;;3.70;2.87;;;9.20;99.90;;;;;;4703399;30;20056;-83
2021/12/01 05:47:50;;;;;;;4.57;3.23;;;9.30;99.90;;;;;;4704389;30;20107;-88
2021/12/01 05:50:17;;;;;;;4.13;2.90;;;9.20;99.90;;;;;;4683704;30;20495;-84
2021/12/01 05:52:43;;;;;;;3.53;2.87;;;9.20;99.90;;;;;;4704225;30;20421;-84
2021/12/01 05:55:09;;;;;;;4.70;3.10;;;9.20;99.90;;;;;;4683304;30;20301;-84
2021/12/01 05:57:35;;;;;;;5.40;3.13;;;9.20;99.90;;;;;;4677312;30;20050;-83
2021/12/01 06:00:06;;;;;;;3.33;2.87;;;9.20;99.90;;;;;;4698028;30;20084;-87
2021/12/01 06:02:32;;;;;;;3.77;2.90;;;9.20;99.90;;;;;;4694540;30;20057;-84
2021/12/01 06:04:58;;;;;;;3.47;3.00;;;9.20;99.90;;;;;;4697718;30;20463;-84
2021/12/01 06:07:23;;;;;;;2.83;2.10;;;9.20;99.90;;;;;;4698057;30;20049;-85
2021/12/01 06:09:49;;;;;;;3.23;2.47;;;9.20;99.90;;;;;;4700636;30;20049;-83
2021/12/01 06:12:15;;;;;;;2.90;2.60;;;9.10;99.90;;;;;;4687176;30;20049;-83
2021/12/01 06:14:43;;;;;;;2.17;1.97;;;9.10;99.90;;;;;;4664512;30;20137;-84
2021/12/01 06:17:10;;;;;;;2.37;2.17;;;9.10;99.90;;;;;;4667610;30;20541;-88
2021/12/01 06:19:39;;;;;;;3.63;2.47;;;9.00;99.90;;;;;;4670851;30;20123;-84
2021/12/01 06:22:06;;;;;;;2.90;2.30;;;9.00;99.90;;;;;;4697663;30;20049;-86
2021/12/01 06:24:32;;;;;;;2.60;1.90;;;9.00;99.90;;;;;;4702276;30;20409;-85
2021/12/01 06:26:58;;;;;;;2.23;1.77;;;9.00;99.90;;;;;;4716248;30;20052;-86
2021/12/01 06:29:24;;;;;;;2.30;2.10;;;9.00;99.90;;;;;;4702810;30;20148;-84
2021/12/01 06:31:50;;;;;;;2.10;1.87;;;9.00;99.90;;;;;;4699015;30;20061;-82
2021/12/01 06:34:16;;;;;;;3.07;2.40;;;9.00;99.90;;;;;;4684401;30;20058;-86
2021/12/01 06:36:41;;;;;;;2.47;2.27;;;9.00;99.90;;;;;;4700620;30;20050;-84
2021/12/01 06:39:08;;;;;;;2.50;2.30;;;9.00;99.90;;;;;;4684310;30;20483;-82
2021/12/01 06:41:35;;;;;;;2.63;2.20;;;8.90;99.90;;;;;;4711155;30;20064;-87
2021/12/01 06:44:01;;;;;;;2.90;2.17;;;8.90;99.90;;;;;;4701728;30;20075;-84
2021/12/01 06:46:28;;;;;;;2.90;2.57;;;8.90;99.90;;;;;;4701944;30;20052;-84
2021/12/01 06:48:55;;;;;;;2.73;2.30;;;8.90;99.90;;;;;;4688982;30;20395;-83
2021/12/01 06:51:21;;;;;;;3.03;2.70;;;8.90;99.90;;;;;;4656887;30;20573;-84
2021/12/01 06:53:47;;;;;;;3.53;2.73;;;8.90;99.90;;;;;;4698466;30;20104;-84
2021/12/01 06:56:12;;;;;;;3.10;2.60;;;8.90;99.90;;;;;;4701742;30;20081;-85
2021/12/01 06:58:39;;;;;;;2.83;2.53;;;8.90;99.90;;;;;;4695218;30;20549;-86
2021/12/01 07:01:06;;;;;;;2.67;2.43;;;8.90;99.90;;;;;;4701252;30;20049;-83
2021/12/01 07:03:34;;;;;;;2.70;2.40;;;8.90;99.90;;;;;;4712423;30;20066;-82
2021/12/01 07:06:00;;;;;;;3.10;2.40;;;8.90;99.90;;;;;;4700007;30;20038;-85
2021/12/01 07:08:26;;;;;;;4.33;2.43;;;8.80;99.90;;;;;;4684190;30;20477;-81
2021/12/01 07:10:52;;;;;;;3.23;2.47;;;8.80;99.90;;;;;;4716262;30;20049;-85
2021/12/01 07:13:18;;;;;;;4.00;2.60;;;8.80;99.90;;;;;;4701117;30;20088;-82
2021/12/01 07:15:44;;;;;;;2.37;2.17;;;8.80;99.90;;;;;;4687340;30;20050;-83
2021/12/01 07:18:10;;;;;;;2.70;2.50;;;8.80;99.90;;;;;;4713277;30;20140;-82
2021/12/01 07:20:36;;;;;;;2.40;2.20;;;8.80;99.90;;;;;;4664817;30;20128;-83
2021/12/01 07:23:05;;;;;;;2.93;2.37;;;8.80;99.90;;;;;;4684120;30;20100;-87
2021/12/01 07:25:32;;;;;;;2.43;2.20;;;8.80;99.90;;;;;;4715237;30;20076;-82
2021/12/01 07:27:58;;;;;;;3.50;2.40;;;8.80;99.90;;;;;;4715619;30;20045;-83
2021/12/01 07:30:24;;;;;;;3.13;2.53;;;8.70;99.90;;;;;;4707905;30;20132;-85
2021/12/01 07:32:50;;;;;;;5.23;2.47;;;8.70;99.90;;;;;;4699002;30;20091;-85
2021/12/01 07:35:19;;;;;;;2.63;2.30;;;8.80;99.90;;;;;;4713790;30;20084;-83
2021/12/01 07:37:46;;;;;;;2.83;2.40;;;8.70;99.90;;;;;;4687460;30;20037;-85
2021/12/01 07:40:12;;;;;;;3.47;2.17;;;8.70;99.90;;;;;;4692964;30;20052;-81
2021/12/01 07:42:38;;;;;;;2.70;2.47;;;8.80;99.90;;;;;;4704671;30;20144;-85
2021/12/01 07:45:05;;;;;;;2.87;2.37;;;8.80;99.90;;;;;;4681677;30;20497;-85
2021/12/01 07:47:31;;;;;;;3.23;2.60;;;8.80;99.90;;;;;;4696823;30;20410;-81
2021/12/01 07:49:57;;;;;;;3.23;2.60;;;8.80;99.90;;;;;;4708381;30;20087;-86
2021/12/01 07:52:23;;;;;;;3.13;2.50;;;8.80;99.90;;;;;;4692437;30;20080;-82
2021/12/01 07:54:48;;;;;;;2.80;2.40;;;8.70;99.90;;;;;;4690387;30;20177;-83
2021/12/01 07:57:15;;;;;;;3.37;2.50;;;8.80;99.90;;;;;;4684148;30;20049;-83
2021/12/01 07:59:41;;;;;;;2.20;2.00;;;8.80;99.90;;;;;;4708085;30;20049;-83
2021/12/01 08:02:07;;;;;;;3.20;2.30;;;8.70;99.90;;;;;;4692627;30;20286;-83
2021/12/01 08:04:33;;;;;;;3.57;2.50;;;8.70;99.90;;;;;;4693074;30;20103;-83
2021/12/01 08:07:00;;;;;;;3.73;3.00;;;8.70;99.90;;;;;;4688909;30;20056;-82
2021/12/01 08:09:25;;;;;;;3.30;2.70;;;8.80;99.90;;;;;;4700718;30;20116;-82
2021/12/01 08:11:52;;;;;;;4.00;2.93;;;8.80;99.90;;;;;;4699588;30;20054;-83
2021/12/01 08:14:19;;;;;;;3.37;2.90;;;8.80;99.90;;;;;;4707262;30;20060;-81
2021/12/01 08:16:45;;;;;;;5.70;3.20;;;8.80;99.90;;;;;;4712232;30;20073;-83
2021/12/01 08:19:10;;;;;;;3.80;2.90;;;8.80;99.90;;;;;;4706494;30;20459;-82
2021/12/01 08:21:36;;;;;;;3.83;2.97;;;8.80;99.90;;;;;;4689729;30;20109;-84
2021/12/01 08:24:03;;;;;;;4.47;3.23;;;8.80;99.90;;;;;;4687527;30;20061;-81
2021/12/01 08:26:28;;;;;;;4.93;3.50;;;8.90;99.90;;;;;;4671000;30;20093;-83
2021/12/01 08:28:54;;;;;;;4.83;3.03;;;8.90;99.90;;;;;;4700878;30;20085;-83
2021/12/01 08:31:20;;;;;;;3.60;2.97;;;8.90;99.90;;;;;;4673206;30;20045;-83
2021/12/01 08:33:47;;;;;;;3.80;3.20;;;8.90;99.90;;;;;;4694522;30;20065;-83
2021/12/01 08:36:14;;;;;;;5.00;3.23;;;8.90;99.90;;;;;;4684731;30;20391;-83
2021/12/01 08:38:40;;;;;;;4.80;3.67;;;9.00;99.90;;;;;;4691340;30;20068;-84
2021/12/01 08:41:07;;;;;;;6.37;3.50;;;8.90;99.90;;;;;;4688898;30;20126;-85
2021/12/01 08:43:34;;;;;;;4.33;3.60;;;9.00;99.90;;;;;;4675732;30;20092;-82
2021/12/01 08:46:01;;;;;;;5.63;3.37;;;9.00;99.90;;;;;;4699006;30;20057;-83
2021/12/01 08:48:27;;;;;;;5.20;3.73;;;9.00;99.90;;;;;;4707025;30;20057;-83
2021/12/01 08:50:56;;;;;;;4.43;3.60;;;9.00;99.90;;;;;;4697820;30;20115;-83
2021/12/01 08:53:22;;;;;;;4.27;3.67;;;9.00;99.90;;;;;;4705892;30;20104;-82
2021/12/01 08:55:48;;;;;;;4.67;3.53;;;9.10;99.90;;;;;;4705277;30;20049;-83
2021/12/01 08:58:15;;;;;;;4.20;3.10;;;9.00;99.90;;;;;;4708121;30;20546;-83
2021/12/01 09:00:44;;;;;;;5.50;3.00;;;9.10;99.90;;;;;;4714988;30;20057;-85
2021/12/01 09:03:14;;;;;;;4.90;2.60;;;9.10;99.90;;;;;;4687418;30;20053;-84
2021/12/01 09:05:40;;;;;;;4.00;2.70;;;9.10;99.90;;;;;;4708206;30;20084;-82
2021/12/01 09:08:07;;;;;;;4.20;2.10;;;9.20;99.90;;;;;;4700254;30;20053;-82
2021/12/01 09:10:34;;;;;;;5.83;1.80;;;9.10;99.90;;;;;;4692296;30;20053;-84
2021/12/01 09:13:01;;;;;;;7.30;2.30;;;9.20;99.90;;;;;;4673926;30;20060;-81
2021/12/01 09:15:27;;;;;;;5.70;2.30;;;9.20;99.90;;;;;;4705095;30;20123;-82
2021/12/01 09:17:53;;;;;;;7.90;2.73;;;9.20;99.90;;;;;;4709942;30;20060;-84
2021/12/01 09:20:19;;;;;;;7.10;1.87;;;9.20;99.90;;;;;;4687209;30;20057;-81
2021/12/01 09:22:45;;;;;;;10.60;2.60;;;9.30;99.90;;;;;;4682808;30;20128;-84
2021/12/01 09:25:11;;;;;;;8.53;1.93;;;9.30;99.90;;;;;;4691486;30;20110;-83
2021/12/01 09:27:37;;;;;;;6.43;1.73;;;9.30;99.90;;;;;;4671086;30;20442;-83
2021/12/01 09:30:05;;;;;;;4.20;2.03;;;9.30;99.90;;;;;;4693343;30;20482;-84
2021/12/01 09:32:39;;;;;;;8.83;1.93;;;9.20;99.90;;;;;;4692736;30;20149;-84
2021/12/01 09:35:06;;;;;;;8.80;1.87;;;9.20;99.90;;;;;;4690397;30;20064;-84
2021/12/01 09:37:32;;;;;;;10.17;1.93;;;9.20;99.90;;;;;;4683025;30;20477;-83
2021/12/01 09:39:58;;;;;;;9.27;1.83;;;9.20;99.90;;;;;;4685513;30;20080;-83
2021/12/01 09:42:24;;;;;;;7.43;1.90;;;9.20;99.90;;;;;;4669795;30;20053;-83
2021/12/01 09:44:51;;;;;;;9.40;1.90;;;9.20;99.90;;;;;;4690152;30;20045;-82
2021/12/01 09:47:19;;;;;;;6.43;1.87;;;9.30;99.90;;;;;;4687911;30;20513;-84
2021/12/01 09:49:47;;;;;;;9.20;2.27;;;9.30;99.90;;;;;;4688977;30;20040;-85
2021/12/01 09:52:13;;;;;;;10.20;2.23;;;9.20;99.90;;;;;;4691840;30;20522;-84
2021/12/01 09:54:39;;;;;;;8.13;1.70;;;9.20;99.90;;;;;;4684950;30;20049;-84
2021/12/01 09:57:13;;;;;;;4.37;1.10;;;9.10;99.90;;;;;;4685244;30;20045;-84
2021/12/01 09:59:43;;;;;;;5.43;1.43;;;9.10;99.90;;;;;;4694370;30;20050;-84
2021/12/01 10:02:12;;;;;;;3.97;1.10;;;9.10;99.90;;;;;;4695122;30;20088;-83
2021/12/01 10:04:38;;;;;;;7.23;1.30;;;9.00;99.90;;;;;;4684918;30;20053;-83
2021/12/01 10:07:19;;;;;;;6.03;1.37;;;9.00;99.90;;;;;;4686602;30;20050;-84
2021/12/01 10:09:48;;;;;;;5.60;1.50;;;9.00;99.90;;;;;;4698195;30;20080;-82
2021/12/01 10:12:15;;;;;;;5.60;1.47;;;9.00;99.90;;;;;;4684141;30;20054;-84
2021/12/01 10:14:51;;;;;;;7.73;1.50;;;9.00;99.90;;;;;;4695834;30;20053;-83
2021/12/01 10:17:31;;;;;;;8.40;1.07;;;9.00;99.90;;;;;;4691836;30;20063;-83
2021/12/01 10:20:17;;;;;;;7.67;1.77;;;9.00;99.90;;;;;;4691634;30;20057;-85
2021/12/01 10:23:13;;;;;;;9.03;1.67;;;9.00;99.90;;;;;;4708564;30;20521;-83
2021/12/01 10:25:39;;;;;;;11.20;2.10;;;9.00;99.90;;;;;;4681319;30;20518;-83
2021/12/01 10:28:05;;;;;;;8.77;2.43;;;9.00;99.90;;;;;;4712926;30;20486;-82
2021/12/01 10:30:40;;;;;;;10.97;1.63;;;9.10;99.90;;;;;;4693577;30;20115;-85
2021/12/01 10:33:12;;;;;;;7.37;1.67;;;9.10;99.90;;;;;;4691843;30;20050;-83
2021/12/01 10:35:39;;;;;;;9.25;1.30;;;9.10;99.90;;;;;;4685202;30;20045;-83
2021/12/01 10:38:07;;;;;;;11.77;2.00;;;9.10;99.90;;;;;;4684647;30;20136;-84
2021/12/01 10:40:36;;;;;;;11.70;1.57;;;9.10;99.90;;;;;;4691980;30;20123;-83
2021/12/01 10:43:08;;;;;;;6.90;1.60;;;9.10;99.90;;;;;;4693107;30;20057;-83
2021/12/01 10:45:38;;;;;;;7.78;1.98;;;9.10;99.90;;;;;;4693090;30;20505;-82
2021/12/01 10:48:07;;;;;;;5.97;1.80;;;9.00;99.90;;;;;;4699545;30;20045;-83
2021/12/01 10:50:35;;;;;;;7.67;1.53;;;9.00;99.90;;;;;;4676702;30;20565;-83
2021/12/01 10:53:12;;;;;;;7.13;1.90;;;9.00;99.90;;;;;;4704142;30;20046;-82
2021/12/01 10:55:44;;;;;;;5.50;1.73;;;9.00;99.90;;;;;;4678725;30;20056;-84
2021/12/01 10:58:10;;;;;;;7.63;1.45;;;9.10;99.90;;;;;;4690736;30;20402;-84
2021/12/01 11:00:46;;;;;;;5.97;1.67;;;9.10;99.90;;;;;;4696938;30;20053;-82
2021/12/01 11:03:18;;;;;;;8.13;1.50;;;9.10;99.90;;;;;;4709269;30;20049;-82
2021/12/01 11:06:06;;;;;;;5.82;1.50;;;9.10;99.90;;;;;;4712842;30;20057;-84
2021/12/01 11:08:37;;;;;;;7.13;1.63;;;9.10;99.90;;;;;;4715144;30;20133;-86
2021/12/01 11:11:09;;;;;;;10.13;1.60;;;9.10;99.90;;;;;;4690887;30;20124;-83
2021/12/01 11:13:37;;;;;;;9.30;1.30;;;9.10;99.90;;;;;;4717307;30;20128;-81
2021/12/01 11:16:06;;;;;;;7.57;1.47;;;9.10;99.90;;;;;;4690089;30;20045;-81
2021/12/01 11:18:34;;;;;;;5.53;1.20;;;9.10;99.90;;;;;;4700091;30;20500;-82
2021/12/01 11:21:10;;;;;;;8.60;1.60;;;9.10;99.90;;;;;;4703601;30;20045;-84
2021/12/01 11:23:39;;;;;;;10.10;2.20;;;9.00;99.90;;;;;;4697935;30;20049;-83
2021/12/01 11:26:08;;;;;;;8.27;1.70;;;9.00;99.90;;;;;;4699546;30;20518;-83
2021/12/01 11:28:44;;;;;;;9.33;1.87;;;9.00;99.90;;;;;;4701148;30;20514;-83
2021/12/01 11:31:17;;;;;;;10.23;1.60;;;9.00;99.90;;;;;;4694305;30;20055;-84
2021/12/01 11:33:46;;;;;;;6.23;1.60;;;8.90;99.90;;;;;;4710435;30;20057;-82
2021/12/01 11:36:18;;;;;;;11.57;2.10;;;9.00;99.90;;;;;;4695509;30;20057;-82
2021/12/01 11:38:53;;;;;;;10.60;1.40;;;9.10;99.90;;;;;;4679344;30;20088;-81
2021/12/01 11:41:19;;;;;;;7.07;2.23;;;9.10;99.90;;;;;;4702930;30;20495;-83
2021/12/01 11:43:47;;;;;;;9.20;2.30;;;9.10;99.90;;;;;;4685068;30;20057;-81
2021/12/01 11:46:15;;;;;;;11.20;2.40;;;9.10;99.90;;;;;;4659094;30;20591;-81
2021/12/01 11:48:51;;;;;;;6.93;2.07;;;9.00;99.90;;;;;;4687628;30;20057;-82
2021/12/01 11:51:35;;;;;;;15.60;2.77;;;9.00;99.90;;;;;;4698686;30;20045;-82
2021/12/01 11:54:11;;;;;;;12.27;2.50;;;8.90;99.90;;;;;;4686463;30;20045;-81
2021/12/01 11:56:46;;;;;;;13.20;2.73;;;8.90;99.90;;;;;;4688729;30;20069;-83
2021/12/01 11:59:15;;;;;;;14.07;2.77;;;8.80;99.90;;;;;;4682376;30;20045;-83
2021/12/01 12:01:48;;;;;;;12.10;3.13;;;8.80;99.90;;;;;;4680964;30;20406;-81
2021/12/01 12:04:14;;;;;;;13.67;2.57;;;8.80;99.90;;;;;;4683047;30;20061;-81
2021/12/01 12:06:52;;;;;;;12.10;2.80;;;8.80;99.90;;;;;;4682729;30;20443;-82
2021/12/01 12:09:21;;;;;;;14.13;2.23;;;8.70;99.90;;;;;;4683963;30;20053;-83
2021/12/01 12:11:51;;;;;;;10.50;2.30;;;8.70;99.90;;;;;;4680450;30;20376;-82
2021/12/01 12:14:28;;;;;;;8.07;2.20;;;8.80;99.90;;;;;;4669684;30;20129;-82
2021/12/01 12:17:20;;;;;;;11.23;2.20;;;8.80;99.90;;;;;;4691847;30;20046;-81
2021/12/01 12:20:22;;;;;;;9.60;2.83;;;8.70;99.90;;;;;;4674615;30;20057;-82
2021/12/01 12:22:49;;;;;;;7.32;2.55;;;8.80;99.90;;;;;;4686597;30;20053;-82
2021/12/01 12:25:38;;;;;;;15.80;3.00;;;8.80;99.90;;;;;;4703516;30;20394;-83
2021/12/01 12:28:25;;;;;;;15.03;2.93;;;8.80;99.90;;;;;;4685298;30;20041;-85
2021/12/01 12:30:53;;;;;;;8.03;2.30;;;8.70;99.90;;;;;;4710745;30;20053;-84
2021/12/01 12:33:31;;;;;;;11.07;2.40;;;8.70;99.90;;;;;;4694893;30;20453;-84
2021/12/01 12:36:01;;;;;;;12.17;2.77;;;8.70;99.90;;;;;;4703493;30;20081;-86
2021/12/01 12:38:27;;;;;;;14.07;2.70;;;8.70;99.90;;;;;;4701352;30;20049;-84
2021/12/01 12:41:00;;;;;;;10.37;2.90;;;8.60;99.90;;;;;;4683785;30;20045;-84
2021/12/01 12:43:28;;;;;;;11.93;2.47;;;8.70;99.90;;;;;;4682205;30;20058;-85
2021/12/01 12:46:18;;;;;;;12.63;2.40;;;8.60;99.90;;;;;;4677297;30;20167;-86
2021/12/01 12:48:48;;;;;;;13.20;2.47;;;8.60;99.90;;;;;;4695227;30;20045;-86
2021/12/01 12:51:18;;;;;;;20.20;3.07;;;8.50;99.90;;;;;;4684841;30;20049;-89
2021/12/01 12:54:08;;;;;;;12.30;2.27;;;8.50;99.90;;;;;;4699443;30;20135;-85
2021/12/01 12:56:37;;;;;;;10.00;2.07;;;8.50;99.90;;;;;;4688123;30;20065;-85
2021/12/01 12:59:19;;;;;;;14.60;3.20;;;8.50;99.90;;;;;;4683146;30;20069;-87
2021/12/01 13:02:14;;;;;;;10.65;2.20;;;8.40;99.90;;;;;;4686409;30;20497;-85
2021/12/01 13:04:51;;;;;;;12.40;2.10;;;8.40;99.90;;;;;;4650789;30;20077;-86
2021/12/01 13:07:42;;;;;;;9.47;2.30;;;8.40;99.90;;;;;;4672023;30;20038;-89